Latest Coastal Weather Observations for Mornington Island Airport

IDQ60701

Issued at 7:31 am EST Wednesday 1 July 2015 (issued every 10 minutes, with the page automatically refreshed every 10 minutes)

About coastal observations | Map of coastal stations | Coastal observations for QLD | Marine services | Other Formats
Station Details ID: 029182 Name: MORNINGTON ISLAND AIRPORT Lat: -16.66 Lon: 139.17 Height: 9.0 m
Data from the previous 72 hours. | See also: Recent months at Mornington Island Airport
Date/Time
EST
Temp

°C
Wind Pressure Rain
since 9am
mm
Weather Cloud Vis
km
Sea
Height
m
Swell
Dir
 
Speed
knots
Gust
knots
hPa Trend Height
m
Period
s
Dir
01/07:30am 22.4 ESE 6 8 1019.6 - 0.0 - - - - - - -
01/07:00am 22.5 ESE 7 11 1019.2 - 0.0 - - - - - - -
01/06:30am 23.1 E 11 14 1018.9 - 0.0 - - - - - - -
01/06:00am 23.3 E 10 15 1018.7 - 0.0 - - - - - - -
01/05:30am 23.2 E 10 12 1018.5 - 0.0 - - - - - - -
01/05:00am 23.3 ESE 9 12 1018.3 - 0.0 - - - - - - -
01/04:30am 23.0 E 10 13 1018.2 - 0.0 - - - - - - -
01/04:00am 22.9 ESE 10 14 1018.2 - 0.0 - - - - - - -
01/03:30am 23.0 ESE 11 16 1018.2 - 0.0 - - - - - - -
01/03:00am 23.6 ESE 10 14 1018.1 - 0.0 - - - - - - -
01/02:30am 23.8 ESE 10 14 1018.1 - 0.0 - - - - - - -
01/02:00am 23.8 ESE 12 16 1018.3 - 0.0 - - - - - - -
01/01:30am 23.6 ESE 12 17 1018.4 - 0.0 - - - - - - -
01/01:00am 22.7 ESE 6 8 1018.5 - 0.0 - - - - - - -
01/12:30am 22.6 ESE 4 5 1018.4 - 0.0 - - - - - - -
01/12:00am 22.6 ESE 5 6 1018.6 - 0.0 - - - - - - -
 
Date/Time
EST
Temp

°C
Wind Pressure Rain
since 9am
mm
Weather Cloud Vis
km
Sea
Height
m
Swell
Dir
 
Speed
knots
Gust
knots
hPa Trend Height
m
Period
s
Dir
30/11:30pm 23.0 SSE 5 8 1018.6 - 0.0 - - - - - - -
30/11:00pm 23.2 ESE 5 7 1018.7 - 0.0 - - - - - - -
30/10:30pm 23.6 SE 4 5 1018.5 - 0.0 - - - - - - -
30/10:00pm 23.5 E 6 7 1018.6 - 0.0 - - - - - - -
30/09:30pm 22.8 SE 4 4 1018.4 - 0.0 - - - - - - -
30/09:00pm 22.8 SE 3 4 1018.2 - 0.0 - - - - - - -
30/08:30pm 22.9 SSE 3 4 1018.0 - 0.0 - - - - - - -
30/08:00pm 23.5 E 3 5 1017.6 - 0.0 - - - - - - -
30/07:30pm 24.0 SE 3 5 1017.3 - 0.0 - - - - - - -
30/07:00pm 24.4 ESE 5 6 1017.0 - 0.0 - - - - - - -
30/06:30pm 24.7 ENE 5 7 1016.9 - 0.0 - - - - - - -
30/06:00pm 25.4 E 9 11 1016.8 - 0.0 - - - - - - -
30/05:30pm 25.4 SE 8 12 1016.8 - 0.0 - - - - - - -
30/05:00pm 25.4 SE 9 14 1016.8 - 0.0 - - - - - - -
30/04:30pm 26.3 SE 10 14 1016.6 - 0.0 - - - - - - -
30/04:00pm 26.2 ESE 10 15 1016.4 - 0.0 - - - - - - -
30/03:30pm 25.3 SE 11 15 1016.6 - 0.0 - - - - - - -
30/03:00pm 25.5 SE 12 17 1016.6 - 0.0 - - - - - - -
30/02:30pm 26.3 ESE 12 17 1016.7 - 0.0 - - - - - - -
30/02:00pm 25.4 SE 13 17 1016.8 - 0.0 - - - - - - -
30/01:30pm 25.8 SE 12 18 1017.2 - 0.0 - - - - - - -
30/01:00pm 25.6 SE 11 16 1017.4 - 0.0 - - - - - - -
30/12:30pm 26.0 SE 12 18 1017.7 - 0.0 - - - - - - -
30/12:00pm 26.1 SE 12 17 1017.9 - 0.0 - - - - - - -
30/11:30am 26.6 ESE 12 16 1018.0 - 0.0 - - - - - - -
30/11:00am 26.1 ESE 12 17 1018.2 - 0.0 - - - - - - -
30/10:30am 25.7 ESE 12 17 1018.5 - 0.0 - - - - - - -
30/10:00am 25.2 ESE 12 17 1018.6 - 0.0 - - - - - - -
30/09:30am 24.9 ESE 13 17 1018.6 - 0.0 - - - - - - -
30/09:00am 24.3 ESE 11 16 1018.4 - 0.0 - - - - - - -
30/08:30am 22.8 SE 7 11 1018.1 - 0.0 - - - - - - -
30/08:00am 22.0 SE 6 9 1017.9 - 0.0 - - - - - - -
30/07:30am 21.8 SE 7 10 1017.5 - 0.0 - - - - - - -
30/07:00am 21.5 SSE 5 8 1017.3 - 0.0 - - - - - - -
30/06:30am 21.9 SE 6 9 1016.8 - 0.0 - - - - - - -
30/06:00am 22.4 SE 7 11 1016.3 - 0.0 - - - - - - -
30/05:30am 22.2 SE 9 12 1016.2 - 0.0 - - - - - - -
30/05:00am 22.7 SSE 9 15 1016.0 - 0.0 - - - - - - -
30/04:30am 23.1 SSE 10 15 1015.9 - 0.0 - - - - - - -
30/04:00am 23.7 SSE 10 16 1015.8 - 0.0 - - - - - - -
30/03:30am 23.4 SSE 10 16 1015.7 - 0.0 - - - - - - -
30/03:00am 23.1 SSE 7 13 1015.9 - 0.0 - - - - - - -
30/02:30am 22.7 S 5 8 1016.3 - 0.0 - - - - - - -
30/02:00am 22.0 SSW 4 7 1016.6 - 0.0 - - - - - - -
30/01:30am 21.6 SSW 5 7 1016.7 - 0.0 - - - - - - -
30/01:00am 21.0 SW 2 4 1016.7 - 0.0 - - - - - - -
30/12:30am 21.5 WSW 2 4 1016.8 - 0.0 - - - - - - -
30/12:00am 21.2 WSW 4 4 1016.9 - 0.0 - - - - - - -
 
Date/Time
EST
Temp

°C
Wind Pressure Rain
since 9am
mm
Weather Cloud Vis
km
Sea
Height
m
Swell
Dir
 
Speed
knots
Gust
knots
hPa Trend Height
m
Period
s
Dir
29/11:30pm 20.8 WSW 4 5 1017.1 - 0.0 - - - - - - -
29/11:00pm 20.0 NW 3 4 1017.2 - 0.0 - - - - - - -
29/10:30pm 19.7 CALM 0 0 1017.2 - 0.0 - - - - - - -
29/10:00pm 20.6 NW 3 4 1017.2 - 0.0 - - - - - - -
29/09:30pm 20.8 NW 3 3 1017.1 - 0.0 - - - - - - -
29/09:00pm 21.1 NW 3 5 1017.1 - 0.0 - - - - - - -
29/08:30pm 20.4 NNW 3 5 1017.1 - 0.0 - - - - - - -
29/08:00pm 21.1 CALM 0 2 1016.9 - 0.0 - - - - - - -
29/07:30pm 21.6 CALM 0 1 1016.6 - 0.0 - - - - - - -
29/07:00pm 21.9 SE 3 4 1016.3 - 0.0 - - - - - - -
29/06:30pm 22.8 SE 4 5 1016.0 - 0.0 - - - - - - -
29/06:00pm 23.6 SE 4 6 1015.9 - 0.0 - - - - - - -
29/05:30pm 24.2 SE 5 6 1015.7 - 0.0 - - - - - - -
29/05:00pm 24.2 SE 8 11 1015.7 - 0.0 - - - - - - -
29/04:30pm 25.0 SSE 7 10 1015.7 - 0.0 - - - - - - -
29/04:00pm 25.6 SSE 7 11 1015.6 - 0.0 - - - - - - -
29/03:30pm 26.3 SSE 7 11 1015.6 - 0.0 - - - - - - -
29/03:00pm 26.7 SSE 7 11 1015.9 - 0.0 - - - - - - -
29/02:30pm 27.7 SSE 7 11 1016.2 - 0.0 - - - - - - -
29/02:00pm 27.2 SSE 7 11 1016.5 - 0.0 - - - - - - -
29/01:30pm 28.1 SE 8 12 1017.0 - 0.0 - - - - - - -
29/01:00pm 27.9 ESE 9 13 1017.5 - 0.0 - - - - - - -
29/12:30pm 27.4 SE 10 14 1017.8 - 0.0 - - - - - - -
29/12:00pm 27.3 ESE 11 18 1018.1 - 0.0 - - - - - - -
29/11:30am 27.7 E 12 16 1018.3 - 0.0 - - - - - - -
29/11:00am 28.0 E 13 16 1018.6 - 0.0 - - - - - - -
29/10:30am 27.2 ESE 12 17 1018.9 - 0.0 - - - - - - -
29/10:00am 25.7 ESE 12 19 1018.9 - 0.0 - - - - - - -
29/09:30am 24.8 SE 9 13 1018.9 - 0.0 - - - - - - -
29/09:00am 23.6 SE 9 13 1018.9 - 0.0 - - - - - - -
29/08:30am 22.2 SE 7 9 1018.8 - 0.0 - - - - - - -
29/08:00am 21.2 SE 7 11 1018.7 - 0.0 - - - - - - -
29/07:30am 20.5 SE 7 11 1018.3 - 0.0 - - - - - - -
29/07:00am 20.4 SE 7 10 1018.1 - 0.0 - - - - - - -
29/06:30am 20.2 SE 7 10 1017.9 - 0.0 - - - - - - -
29/06:00am 20.0 SE 6 9 1017.7 - 0.0 - - - - - - -
29/05:30am 19.9 SE 6 8 1017.7 - 0.0 - - - - - - -
29/05:00am 19.9 SE 6 9 1017.8 - 0.0 - - - - - - -
29/04:30am 19.9 SE 5 7 1017.8 - 0.0 - - - - - - -
29/04:00am 20.0 SSE 5 8 1017.8 - 0.0 - - - - - - -
29/03:30am 20.0 SSE 5 7 1017.9 - 0.0 - - - - - - -
29/03:00am 20.1 SSE 5 7 1018.1 - 0.0 - - - - - - -
29/02:30am 20.0 SSE 5 6 1018.4 - 0.0 - - - - - - -
29/02:00am 19.8 SSE 4 9 1018.7 - 0.0 - - - - - - -
29/01:30am 19.1 SSE 4 6 1019.0 - 0.0 - - - - - - -
29/01:00am 18.2 SSE 4 5 1019.1 - 0.0 - - - - - - -
29/12:30am 17.8 SSE 3 5 1019.0 - 0.0 - - - - - - -
29/12:00am 17.9 SSE 4 5 1019.3 - 0.0 - - - - - - -
 
Date/Time
EST
Temp

°C
Wind Pressure Rain
since 9am
mm
Weather Cloud Vis
km
Sea
Height
m
Swell
Dir
 
Speed
knots
Gust
knots
hPa Trend Height
m
Period
s
Dir
28/11:30pm 17.6 SSE 4 5 1019.3 - 0.0 - - - - - - -
28/11:00pm 17.5 S 3 4 1019.4 - 0.0 - - - - - - -
28/10:30pm 17.2 S 3 4 1019.5 - 0.0 - - - - - - -
28/10:00pm 17.9 SSW 3 4 1019.5 - 0.0 - - - - - - -
28/09:30pm 18.2 CALM 0 0 1019.6 - 0.0 - - - - - - -
28/09:00pm 18.7 CALM 0 2 1019.6 - 0.0 - - - - - - -
28/08:30pm 19.3 S 2 3 1019.5 - 0.0 - - - - - - -
28/08:00pm 19.9 S 3 5 1019.1 - 0.0 - - - - - - -
28/07:30pm 20.5 SE 5 6 1018.9 - 0.0 - - - - - - -
28/07:00pm 20.9 SE 5 6 1018.7 - 0.0 - - - - - - -
28/06:30pm 22.0 SE 5 7 1018.7 - 0.0 - - - - - - -
28/06:00pm 23.1 SE 5 7 1018.6 - 0.0 - - - - - - -
28/05:30pm 24.0 SE 6 10 1018.3 - 0.0 - - - - - - -
28/05:00pm 24.4 SSE 7 10 1018.2 - 0.0 - - - - - - -
28/04:30pm 25.4 SSE 7 11 1018.1 - 0.0 - - - - - - -
28/04:00pm 25.8 SSE 6 10 1018.0 - 0.0 - - - - - - -
28/03:30pm 26.8 SE 9 14 1018.1 - 0.0 - - - - - - -
28/03:00pm 26.9 ESE 10 14 1018.2 - 0.0 - - - - - - -
28/02:30pm 27.2 ESE 10 15 1018.4 - 0.0 - - - - - - -
28/02:00pm 27.7 ESE 10 14 1018.6 - 0.0 - - - - - - -
28/01:30pm 27.7 E 12 17 1018.8 - 0.0 - - - - - - -
28/01:00pm 27.0 E 11 15 1019.2 - 0.0 - - - - - - -
28/12:30pm 27.5 E 13 18 1019.5 - 0.0 - - - - - - -
28/12:00pm 26.6 E 13 17 1019.7 - 0.0 - - - - - - -
28/11:30am 26.8 E 12 16 1020.1 - 0.0 - - - - - - -
28/11:00am 26.0 ESE 11 15 1020.4 - 0.0 - - - - - - -
28/10:30am 25.3 ESE 10 15 1020.6 - 0.0 - - - - - - -
28/10:00am 24.8 ESE 11 16 1020.7 - 0.0 - - - - - - -
28/09:30am 23.5 SE 9 13 1020.8 - 0.0 - - - - - - -
28/09:00am 22.0 SSE 8 12 1020.7 - 0.0 - - - - - - -
28/08:30am 21.4 SE 7 11 1020.5 - 0.0 - - - - - - -
28/08:00am 20.7 SSE 8 12 1020.1 - 0.0 - - - - - - -

Other Formats:

Comma delimited format used in spreadsheet applications
http://www.bom.gov.au/fwo/IDQ60701/IDQ60701.94254.axf

JavaScript Object Notation format (JSON) in row-major order
http://www.bom.gov.au/fwo/IDQ60701/IDQ60701.94254.json